createdAt,value
2023-03-25T00:01:09.450Z,93411.78
2023-03-25T00:03:41.844Z,93436.41
2023-03-25T00:06:10.539Z,93402.22
2023-03-25T00:08:37.090Z,93414.47
2023-03-25T00:11:08.206Z,93414.91
2023-03-25T00:13:34.639Z,93424.31
2023-03-25T00:16:02.026Z,93423.19
2023-03-25T00:18:29.692Z,93416.75
2023-03-25T00:20:56.441Z,93421.22
2023-03-25T00:23:23.161Z,93422.00
2023-03-25T00:25:49.704Z,93433.63
2023-03-25T00:28:16.544Z,93424.94
2023-03-25T00:30:43.578Z,93436.56
2023-03-25T00:33:18.099Z,93425.69
2023-03-25T00:35:45.026Z,93432.31
2023-03-25T00:38:12.073Z,93438.97
2023-03-25T00:40:38.412Z,93440.22
2023-03-25T00:43:06.216Z,93444.44
2023-03-25T00:45:33.548Z,93458.44
2023-03-25T00:48:00.404Z,93426.53
2023-03-25T00:50:29.840Z,93433.13
2023-03-25T00:52:56.168Z,93421.16
2023-03-25T00:55:22.525Z,93441.34
2023-03-25T00:57:48.863Z,93441.47
2023-03-25T01:00:21.171Z,93427.50
2023-03-25T01:02:49.061Z,93448.63
2023-03-25T01:05:15.384Z,93449.38
2023-03-25T01:07:42.094Z,93457.53
2023-03-25T01:10:17.796Z,93451.72
2023-03-25T01:12:44.063Z,93442.56
2023-03-25T01:15:10.676Z,93430.94
2023-03-25T01:17:37.011Z,93444.88
2023-03-25T01:20:06.035Z,93455.72
2023-03-25T01:22:32.312Z,93411.94
2023-03-25T01:24:58.579Z,93407.75
2023-03-25T01:27:24.862Z,93394.25
2023-03-25T01:29:51.364Z,93402.66
2023-03-25T01:32:17.628Z,93397.47
2023-03-25T01:34:50.345Z,93398.97
2023-03-25T01:37:18.109Z,93384.03
2023-03-25T01:39:44.432Z,93394.06
2023-03-25T01:42:12.772Z,93373.31
2023-03-25T01:44:39.150Z,93379.59
2023-03-25T01:47:06.759Z,93383.44
2023-03-25T01:49:38.993Z,93379.53
2023-03-25T01:52:07.489Z,93379.53
2023-03-25T01:54:34.239Z,93392.22
2023-03-25T01:57:01.272Z,93379.34
2023-03-25T01:59:28.784Z,93389.78
2023-03-25T02:02:06.503Z,93406.13
2023-03-25T02:04:39.134Z,93404.69
2023-03-25T02:07:08.453Z,93407.22
2023-03-25T02:09:36.418Z,93415.91
2023-03-25T02:12:02.794Z,93421.81
2023-03-25T02:14:31.402Z,93400.72
2023-03-25T02:17:16.553Z,93395.91
2023-03-25T02:20:09.278Z,93393.00
2023-03-25T02:22:55.459Z,93370.69
2023-03-25T02:25:27.879Z,93359.97
2023-03-25T02:28:02.258Z,93351.13
2023-03-25T02:30:38.609Z,93364.28
2023-03-25T02:33:16.444Z,93385.25
2023-03-25T02:35:57.832Z,93411.25
2023-03-25T02:38:43.227Z,93411.25
2023-03-25T02:41:33.945Z,93397.31
2023-03-25T02:44:23.842Z,93405.53
2023-03-25T02:46:54.131Z,93398.03
2023-03-25T02:49:32.043Z,93412.22
2023-03-25T02:52:08.302Z,93392.13
2023-03-25T02:54:36.959Z,93394.00
2023-03-25T02:57:03.882Z,93409.81
2023-03-25T02:59:33.211Z,93419.13
2023-03-25T03:02:01.971Z,93423.06
2023-03-25T03:04:28.276Z,93422.31
2023-03-25T03:06:55.786Z,93410.63
2023-03-25T03:09:25.514Z,93424.03
2023-03-25T03:11:57.382Z,93409.47
2023-03-25T03:14:31.263Z,93408.03
2023-03-25T03:17:04.832Z,93421.19
2023-03-25T03:19:34.202Z,93408.13
2023-03-25T03:22:03.460Z,93412.41
2023-03-25T03:24:29.779Z,93408.91
2023-03-25T03:27:09.641Z,93405.88
2023-03-25T03:29:43.237Z,93412.31
2023-03-25T03:32:18.689Z,93406.53
2023-03-25T03:34:58.031Z,93409.41
2023-03-25T03:37:28.374Z,93414.44
2023-03-25T03:39:55.890Z,93429.94
2023-03-25T03:42:36.323Z,93423.19
2023-03-25T03:45:06.978Z,93414.34
2023-03-25T03:47:36.736Z,93437.13
2023-03-25T03:50:09.401Z,93400.81
2023-03-25T03:52:50.976Z,93391.81
2023-03-25T03:55:40.981Z,93385.84
2023-03-25T03:58:23.405Z,93392.66
2023-03-25T04:01:00.127Z,93389.44
2023-03-25T04:03:34.825Z,93391.78
2023-03-25T04:06:08.097Z,93392.84
2023-03-25T04:08:38.321Z,93382.84
2023-03-25T04:11:09.606Z,93387.66
2023-03-25T04:13:38.091Z,93392.47
2023-03-25T04:16:04.585Z,93378.16
2023-03-25T04:18:33.653Z,93385.84
2023-03-25T04:21:00.935Z,93375.09
2023-03-25T04:23:29.902Z,93376.94
2023-03-25T04:25:56.876Z,93362.03
2023-03-25T04:28:25.635Z,93390.78
2023-03-25T04:30:55.730Z,93383.16
2023-03-25T04:33:25.422Z,93412.31
2023-03-25T04:35:52.153Z,93404.56
2023-03-25T04:38:19.175Z,93418.50
2023-03-25T04:40:49.008Z,93429.38
2023-03-25T04:43:16.256Z,93454.34
2023-03-25T04:45:49.106Z,93470.16
2023-03-25T04:48:21.293Z,93489.28
2023-03-25T04:50:48.217Z,93482.41
2023-03-25T04:53:14.548Z,93509.97
2023-03-25T04:55:48.025Z,93506.75
2023-03-25T04:58:15.897Z,93492.03
2023-03-25T05:00:43.723Z,93500.66
2023-03-25T05:03:11.518Z,93513.28
2023-03-25T05:05:38.016Z,93511.69
2023-03-25T05:08:11.551Z,93499.38
2023-03-25T05:10:38.808Z,93493.53
2023-03-25T05:13:06.508Z,93487.19
2023-03-25T05:15:39.156Z,93500.97
2023-03-25T05:18:06.827Z,93508.22
2023-03-25T05:20:35.097Z,93518.50
2023-03-25T05:23:01.441Z,93534.06
2023-03-25T05:25:28.995Z,93537.28
2023-03-25T05:27:55.315Z,93547.56
2023-03-25T05:30:21.679Z,93527.28
2023-03-25T05:32:56.417Z,93519.56
2023-03-25T05:35:23.496Z,93526.72
2023-03-25T05:37:50.276Z,93531.09
2023-03-25T05:40:16.614Z,93518.75
2023-03-25T05:42:47.020Z,93524.47
2023-03-25T05:45:13.439Z,93543.88
2023-03-25T05:47:40.243Z,93540.00
2023-03-25T05:50:08.220Z,93526.09
2023-03-25T05:52:34.542Z,93503.50
2023-03-25T05:55:00.846Z,93496.09
2023-03-25T05:57:27.189Z,93512.28
2023-03-25T05:59:53.518Z,93518.44
2023-03-25T06:02:20.529Z,93522.34
2023-03-25T06:04:50.364Z,93519.16
2023-03-25T06:07:20.119Z,93519.63
2023-03-25T06:09:47.580Z,93520.41
2023-03-25T06:12:15.462Z,93539.09
2023-03-25T06:14:43.014Z,93539.09
2023-03-25T06:17:10.891Z,93529.63
2023-03-25T06:19:40.235Z,93536.75
2023-03-25T06:22:09.281Z,93539.50
2023-03-25T06:24:39.100Z,93549.69
2023-03-25T06:27:09.961Z,93549.06
2023-03-25T06:29:37.244Z,93543.19
2023-03-25T06:32:04.149Z,93540.94
2023-03-25T06:34:32.819Z,93553.69
2023-03-25T06:37:05.491Z,93542.63
2023-03-25T06:39:38.184Z,93554.03
2023-03-25T06:42:05.268Z,93548.50
2023-03-25T06:44:33.650Z,93545.88
2023-03-25T06:47:04.445Z,93552.03
2023-03-25T06:49:30.808Z,93559.78
2023-03-25T06:51:57.757Z,93551.81
2023-03-25T06:54:24.230Z,93545.44
2023-03-25T06:56:50.570Z,93541.31
2023-03-25T06:59:16.978Z,93545.06
2023-03-25T07:01:43.382Z,93551.25
2023-03-25T07:04:09.796Z,93536.25
2023-03-25T07:06:38.148Z,93543.00
2023-03-25T07:09:04.464Z,93539.31
2023-03-25T07:11:32.108Z,93535.63
2023-03-25T07:13:58.476Z,93541.09
2023-03-25T07:16:24.858Z,93557.66
2023-03-25T07:18:51.547Z,93544.88
2023-03-25T07:21:18.194Z,93547.81
2023-03-25T07:23:44.630Z,93546.81
2023-03-25T07:26:11.024Z,93548.78
2023-03-25T07:28:38.116Z,93546.53
2023-03-25T07:31:11.945Z,93549.88
2023-03-25T07:33:38.624Z,93560.34
2023-03-25T07:36:06.091Z,93562.09
2023-03-25T07:38:34.933Z,93551.19
2023-03-25T07:41:33.517Z,93554.88
2023-03-25T07:43:59.871Z,93548.88
2023-03-25T07:46:34.534Z,93550.03
2023-03-25T07:49:00.977Z,93539.59
2023-03-25T07:51:27.336Z,93540.97
2023-03-25T07:53:55.796Z,93534.38
2023-03-25T07:56:31.455Z,93545.78
2023-03-25T07:58:57.789Z,93544.38
2023-03-25T08:01:30.504Z,93539.16
2023-03-25T08:03:56.955Z,93525.19
2023-03-25T08:06:23.627Z,93538.84
2023-03-25T08:08:49.919Z,93534.78
2023-03-25T08:11:16.737Z,93515.66
2023-03-25T08:13:50.060Z,93518.38
2023-03-25T08:16:16.412Z,93524.78
2023-03-25T08:18:45.270Z,93521.03
2023-03-25T08:21:16.040Z,93519.06
2023-03-25T08:23:44.531Z,93518.34
2023-03-25T08:26:10.941Z,93515.25
2023-03-25T08:28:37.273Z,93513.19
2023-03-25T08:31:05.296Z,93503.41
2023-03-25T08:33:34.023Z,93507.50
2023-03-25T08:36:02.477Z,93519.72
2023-03-25T08:38:38.106Z,93512.25
2023-03-25T08:41:07.654Z,93517.69
2023-03-25T08:43:34.015Z,93507.13
2023-03-25T08:46:00.397Z,93503.69
2023-03-25T08:48:26.812Z,93509.41
2023-03-25T08:51:15.331Z,93515.69
2023-03-25T08:53:41.637Z,93514.28
2023-03-25T08:56:09.779Z,93516.28
2023-03-25T08:58:38.122Z,93508.47
2023-03-25T09:01:04.556Z,93503.63
2023-03-25T09:03:31.345Z,93515.97
2023-03-25T09:05:58.806Z,93503.78
2023-03-25T09:08:26.289Z,93514.97
2023-03-25T09:10:55.382Z,93521.75
2023-03-25T09:13:21.753Z,93523.38
2023-03-25T09:15:48.140Z,93528.38
2023-03-25T09:18:15.534Z,93524.72
2023-03-25T09:20:51.991Z,93522.38
2023-03-25T09:23:18.330Z,93518.13
2023-03-25T09:26:05.148Z,93521.47
2023-03-25T09:28:31.593Z,93522.72
2023-03-25T09:30:58.282Z,93528.69
2023-03-25T09:33:24.658Z,93524.63
2023-03-25T09:35:51.222Z,93523.34
2023-03-25T09:38:17.698Z,93518.81
2023-03-25T09:40:44.408Z,93517.44
2023-03-25T09:43:29.166Z,93522.00
2023-03-25T09:45:56.404Z,93522.50
2023-03-25T09:48:22.686Z,93526.09
2023-03-25T09:50:49.296Z,93525.00
2023-03-25T09:53:25.001Z,93526.88
2023-03-25T09:55:52.060Z,93520.06
2023-03-25T09:58:22.654Z,93519.97
2023-03-25T10:00:55.816Z,93524.06
2023-03-25T10:03:28.568Z,93513.19
2023-03-25T10:06:00.855Z,93510.88
2023-03-25T10:08:30.300Z,93509.53
2023-03-25T10:11:02.868Z,93510.06
2023-03-25T10:13:37.925Z,93519.00
2023-03-25T10:16:23.007Z,93521.22
2023-03-25T10:18:55.228Z,93532.06
2023-03-25T10:21:49.685Z,93512.53
2023-03-25T10:24:22.549Z,93510.38
2023-03-25T10:26:55.544Z,93508.16
2023-03-25T10:29:26.297Z,93510.81
2023-03-25T10:31:53.999Z,93510.50
2023-03-25T10:34:23.604Z,93507.00
2023-03-25T10:36:57.686Z,93512.09
2023-03-25T10:39:24.800Z,93512.53
2023-03-25T10:41:59.462Z,93513.84
2023-03-25T10:44:27.266Z,93509.72
2023-03-25T10:47:06.230Z,93497.63
2023-03-25T10:49:34.029Z,93497.13
2023-03-25T10:52:01.593Z,93491.19
2023-03-25T10:54:31.825Z,93493.78
2023-03-25T10:57:00.358Z,93494.06
2023-03-25T10:59:28.014Z,93496.03
2023-03-25T11:01:54.980Z,93503.41
2023-03-25T11:04:27.370Z,93485.63
2023-03-25T11:06:57.491Z,93491.88
2023-03-25T11:09:26.303Z,93497.28
2023-03-25T11:11:55.893Z,93495.81
2023-03-25T11:14:27.435Z,93485.84
2023-03-25T11:16:59.670Z,93495.00
2023-03-25T11:19:53.169Z,93492.13
2023-03-25T11:22:22.659Z,93495.84
2023-03-25T11:24:54.354Z,93496.59
2023-03-25T11:27:25.602Z,93494.81
2023-03-25T11:30:03.498Z,93486.06
2023-03-25T11:32:34.558Z,93490.41
2023-03-25T11:35:01.737Z,93479.59
2023-03-25T11:37:31.998Z,93479.94
2023-03-25T11:40:03.742Z,93488.78
2023-03-25T11:42:35.749Z,93482.53
2023-03-25T11:45:03.423Z,93494.25
2023-03-25T11:47:34.457Z,93500.00
2023-03-25T11:50:04.250Z,93509.53
2023-03-25T11:52:41.220Z,93510.63
2023-03-25T11:55:19.586Z,93516.81
2023-03-25T11:57:47.785Z,93515.81
2023-03-25T12:00:18.198Z,93512.63
2023-03-25T12:02:44.703Z,93504.66
2023-03-25T12:05:12.303Z,93509.75
2023-03-25T12:07:48.737Z,93524.31
2023-03-25T12:10:38.090Z,93537.91
2023-03-25T12:13:08.505Z,93527.00
2023-03-25T12:15:52.562Z,93533.41
2023-03-25T12:18:29.680Z,93525.50
2023-03-25T12:21:14.964Z,93522.88
2023-03-25T12:23:50.702Z,93524.38
2023-03-25T12:26:36.472Z,93518.72
2023-03-25T12:29:21.428Z,93518.63
2023-03-25T12:31:51.067Z,93511.13
2023-03-25T12:34:29.728Z,93519.88
2023-03-25T12:37:18.135Z,93528.06
2023-03-25T12:40:11.812Z,93531.16
2023-03-25T12:42:44.447Z,93510.97
2023-03-25T12:45:24.559Z,93512.63
2023-03-25T12:48:09.890Z,93505.31
2023-03-25T12:50:39.344Z,93515.59
2023-03-25T12:53:11.804Z,93511.00
2023-03-25T12:55:58.072Z,93505.16
2023-03-25T12:58:27.369Z,93512.47
2023-03-25T13:01:18.449Z,93517.91
2023-03-25T13:03:44.796Z,93512.28
2023-03-25T13:06:30.298Z,93509.47
2023-03-25T13:09:06.058Z,93522.63
2023-03-25T13:11:46.966Z,93510.38
2023-03-25T13:14:17.510Z,93512.06
2023-03-25T13:16:45.293Z,93505.56
2023-03-25T13:19:25.656Z,93510.22
2023-03-25T13:21:55.536Z,93507.50
2023-03-25T13:24:24.859Z,93516.56
2023-03-25T13:26:53.685Z,93494.06
2023-03-25T13:29:30.129Z,93482.41
2023-03-25T13:32:01.930Z,93487.97
2023-03-25T13:34:50.073Z,93477.31
2023-03-25T13:37:19.503Z,93476.72
2023-03-25T13:39:45.782Z,93478.34
2023-03-25T13:42:36.443Z,93473.44
2023-03-25T13:45:05.467Z,93463.72
2023-03-25T13:47:33.787Z,93457.59
2023-03-25T13:50:20.471Z,93470.00
2023-03-25T13:52:51.514Z,93461.78
2023-03-25T13:55:46.848Z,93474.19
2023-03-25T13:58:19.781Z,93462.03
2023-03-25T14:00:53.118Z,93461.50
2023-03-25T14:03:24.335Z,93460.28
2023-03-25T14:06:09.770Z,93456.97
2023-03-25T14:08:36.278Z,93441.13
2023-03-25T14:11:08.706Z,93445.66
2023-03-25T14:13:40.413Z,93443.00
2023-03-25T14:16:12.726Z,93442.91
2023-03-25T14:18:52.344Z,93439.88
2023-03-25T14:21:24.798Z,93432.50
2023-03-25T14:24:00.782Z,93425.28
2023-03-25T14:26:27.869Z,93429.72
2023-03-25T14:28:57.286Z,93431.63
2023-03-25T14:31:28.625Z,93428.88
2023-03-25T14:34:00.193Z,93434.22
2023-03-25T14:36:43.583Z,93422.28
2023-03-25T14:39:28.073Z,93428.28
2023-03-25T14:45:32.303Z,93433.09
2023-03-25T14:47:59.520Z,93428.66
2023-03-25T14:50:27.555Z,93426.72
2023-03-25T14:53:02.546Z,93417.44
2023-03-25T14:55:30.831Z,93436.28
2023-03-25T14:58:00.550Z,93432.50
2023-03-25T15:00:29.765Z,93403.81
2023-03-25T15:03:05.033Z,93419.28
2023-03-25T15:05:33.751Z,93410.63
2023-03-25T15:08:02.015Z,93410.25
2023-03-25T15:10:34.406Z,93411.06
2023-03-25T15:13:00.792Z,93429.06
2023-03-25T15:15:31.806Z,93427.84
2023-03-25T15:18:00.110Z,93421.63
2023-03-25T15:20:28.752Z,93424.22
2023-03-25T15:23:13.815Z,93426.81
2023-03-25T15:25:41.343Z,93430.91
2023-03-25T16:24:42.816Z,93500.66
2023-03-25T16:27:42.530Z,93495.28
2023-03-25T16:35:27.030Z,93528.69
2023-03-25T16:38:02.353Z,93555.22
2023-03-25T16:40:30.612Z,93561.91
2023-03-25T16:43:07.790Z,93499.72
2023-03-25T16:45:37.429Z,93502.81
2023-03-25T16:48:07.262Z,93490.97
2023-03-25T16:50:36.595Z,93489.69
2023-03-25T16:53:03.173Z,93469.78
2023-03-25T16:55:31.585Z,93475.69
2023-03-25T16:58:02.395Z,93474.44
2023-03-25T17:00:37.903Z,93472.75
2023-03-25T17:03:05.989Z,93480.81
2023-03-25T17:05:32.741Z,93462.56
2023-03-25T17:08:04.771Z,93463.28
2023-03-25T17:10:33.110Z,93458.28
2023-03-25T17:13:04.416Z,93457.06
2023-03-25T17:15:34.214Z,93455.13
2023-03-25T17:18:01.825Z,93462.00
2023-03-25T17:20:32.419Z,93464.34
2023-03-25T17:23:01.936Z,93476.53
2023-03-25T17:25:32.258Z,93487.06
2023-03-25T17:28:21.112Z,93493.13
2023-03-25T17:30:50.820Z,93500.44
2023-03-25T17:33:27.879Z,93522.13
2023-03-25T17:35:56.304Z,93535.53
2023-03-25T17:38:34.804Z,93534.00
2023-03-25T17:41:09.283Z,93537.31
2023-03-25T17:43:37.785Z,93522.47
2023-03-25T17:46:05.682Z,93513.88
2023-03-25T17:48:32.048Z,93503.84
2023-03-25T17:50:59.035Z,93500.47
2023-03-25T17:53:26.299Z,93497.81
2023-03-25T17:55:59.450Z,93505.50
2023-03-25T17:58:59.846Z,93515.28
2023-03-25T18:01:27.174Z,93512.16
2023-03-25T18:03:54.598Z,93517.44
2023-03-25T18:06:21.528Z,93524.84
2023-03-25T18:08:47.989Z,93530.66
2023-03-25T18:11:14.391Z,93541.03
2023-03-25T18:13:45.803Z,93533.09
2023-03-25T18:16:12.140Z,93543.53
2023-03-25T18:18:38.626Z,93534.78
2023-03-25T18:21:07.116Z,93524.84
2023-03-25T18:23:33.438Z,93533.31
2023-03-25T18:26:00.510Z,93536.53
2023-03-25T18:28:27.015Z,93542.66
2023-03-25T18:30:55.145Z,93547.19
2023-03-25T18:33:22.852Z,93543.00
2023-03-25T18:35:49.419Z,93544.59
2023-03-25T18:38:20.790Z,93552.66
2023-03-25T18:40:48.169Z,93553.38
2023-03-25T18:43:14.931Z,93551.03
2023-03-25T18:45:41.386Z,93554.53
2023-03-25T18:48:07.959Z,93559.78
2023-03-25T18:50:36.601Z,93557.47
2023-03-25T18:53:05.876Z,93544.66
2023-03-25T18:55:39.344Z,93541.88
2023-03-25T18:58:05.669Z,93545.78
2023-03-25T19:00:36.554Z,93538.19
2023-03-25T19:03:04.141Z,93542.75
2023-03-25T19:05:31.569Z,93542.50
2023-03-25T19:07:57.936Z,93543.78
2023-03-25T19:10:25.933Z,93537.31
2023-03-25T19:12:52.458Z,93538.75
2023-03-25T19:15:19.848Z,93538.03
2023-03-25T19:17:47.082Z,93541.41
2023-03-25T19:20:18.137Z,93539.66
2023-03-25T19:22:45.193Z,93528.66
2023-03-25T19:25:11.612Z,93533.56
2023-03-25T19:27:38.017Z,93535.69
2023-03-25T19:30:05.921Z,93531.06
2023-03-25T19:32:32.291Z,93541.97
2023-03-25T19:34:58.603Z,93530.16
2023-03-25T19:37:30.431Z,93530.50
2023-03-25T19:39:57.958Z,93530.41
2023-03-25T19:42:24.261Z,93529.81
2023-03-25T19:44:50.591Z,93529.81
2023-03-25T19:47:16.972Z,93535.59
2023-03-25T19:49:49.272Z,93533.00
2023-03-25T19:52:15.722Z,93548.13
2023-03-25T19:57:25.487Z,93534.22
2023-03-25T20:00:15.239Z,93528.69
2023-03-25T20:06:00.036Z,93528.28
2023-03-25T20:08:32.261Z,93524.59
2023-03-25T20:10:58.682Z,93525.75
2023-03-25T20:13:25.340Z,93518.97
2023-03-25T20:15:52.089Z,93520.66
2023-03-25T20:18:18.638Z,93516.78
2023-03-25T20:20:44.958Z,93517.13
2023-03-25T20:23:11.605Z,93515.66
2023-03-25T20:25:39.064Z,93515.66
2023-03-25T20:28:06.094Z,93520.69
2023-03-25T20:30:35.145Z,93521.16
2023-03-25T20:33:04.579Z,93520.91
2023-03-25T20:35:31.725Z,93512.19
2023-03-25T20:37:58.094Z,93516.34
2023-03-25T20:40:33.875Z,93511.81
2023-03-25T20:43:08.129Z,93493.25
2023-03-25T20:45:34.500Z,93496.16
2023-03-25T20:48:01.698Z,93497.84
2023-03-25T20:50:28.073Z,93499.75
2023-03-25T20:52:55.636Z,93492.78
2023-03-25T20:55:22.155Z,93489.41
2023-03-25T20:57:48.484Z,93489.19
2023-03-25T21:00:18.158Z,93479.78
2023-03-25T21:02:44.957Z,93495.63
2023-03-25T21:05:11.413Z,93485.25
2023-03-25T21:07:38.948Z,93484.53
2023-03-25T21:10:05.639Z,93483.09
2023-03-25T21:12:42.442Z,93478.69
2023-03-25T21:15:10.581Z,93468.25
2023-03-25T21:17:37.166Z,93473.63
2023-03-25T21:20:07.694Z,93489.50
2023-03-25T21:22:34.592Z,93490.41
2023-03-25T21:25:01.387Z,93476.41
2023-03-25T21:27:37.721Z,93480.81
2023-03-25T21:30:09.609Z,93474.81
2023-03-25T21:32:43.545Z,93458.72
2023-03-25T21:35:10.499Z,93467.88
2023-03-25T21:37:40.537Z,93470.34
2023-03-25T21:40:10.108Z,93459.25
2023-03-25T21:42:48.662Z,93463.56
2023-03-25T21:45:16.922Z,93466.16
2023-03-25T21:47:45.067Z,93467.59
2023-03-25T21:50:12.272Z,93457.75
2023-03-25T21:52:46.836Z,93461.56
2023-03-25T21:55:14.429Z,93461.56
2023-03-25T21:57:44.392Z,93462.81
2023-03-25T22:00:14.281Z,93461.72
2023-03-25T22:02:43.380Z,93453.53
2023-03-25T22:05:11.334Z,93447.63
2023-03-25T22:07:38.153Z,93458.00
2023-03-25T22:10:07.309Z,93458.25
2023-03-25T22:12:33.652Z,93458.72
2023-03-25T22:15:00.286Z,93462.09
2023-03-25T22:17:26.631Z,93457.28
2023-03-25T22:19:52.979Z,93463.44
2023-03-25T22:22:20.749Z,93463.81
2023-03-25T22:24:47.726Z,93458.50
2023-03-25T22:27:14.415Z,93461.50
2023-03-25T22:29:44.236Z,93458.66
2023-03-25T22:32:10.579Z,93460.59
2023-03-25T22:34:37.281Z,93460.97
2023-03-25T22:37:04.433Z,93458.97
2023-03-25T22:39:30.869Z,93458.13
2023-03-25T22:41:57.919Z,93461.72
2023-03-25T22:44:24.768Z,93448.41
2023-03-25T22:46:51.571Z,93449.13
2023-03-25T22:49:19.420Z,93451.34
2023-03-25T22:51:45.973Z,93456.31
2023-03-25T22:54:12.306Z,93460.59
2023-03-25T22:56:38.808Z,93454.69
2023-03-25T22:59:15.199Z,93460.75
2023-03-25T23:01:42.454Z,93458.81
2023-03-25T23:04:09.161Z,93449.50
2023-03-25T23:06:36.293Z,93448.41
2023-03-25T23:09:03.675Z,93452.88
2023-03-25T23:11:31.793Z,93448.03
2023-03-25T23:13:59.653Z,93452.50
2023-03-25T23:16:27.882Z,93457.03
2023-03-25T23:18:54.270Z,93459.88
2023-03-25T23:21:23.234Z,93462.22
2023-03-25T23:23:52.899Z,93463.47
2023-03-25T23:26:27.993Z,93460.75
2023-03-25T23:28:56.403Z,93454.31
2023-03-25T23:31:28.252Z,93448.75
2023-03-25T23:33:56.528Z,93446.47
2023-03-25T23:36:23.697Z,93456.44
2023-03-25T23:38:50.118Z,93453.97
2023-03-25T23:41:17.926Z,93452.75
2023-03-25T23:43:44.218Z,93452.50
2023-03-25T23:46:12.097Z,93443.84
2023-03-25T23:48:41.924Z,93442.31
2023-03-25T23:51:10.476Z,93450.50
2023-03-25T23:53:38.003Z,93435.53
2023-03-25T23:56:05.382Z,93443.22
2023-03-25T23:58:33.085Z,93440.53
